sensor_id;sensor_type;location;lat;lon;timestamp;pressure;altitude;pressure_sealevel;temperature;humidity
40730;BME280;26418;50.070;8.436;2023-05-22T00:01:03;99598.59;;;19.44;58.87
40730;BME280;26418;50.070;8.436;2023-05-22T00:03:31;99601.34;;;19.44;59.26
40730;BME280;26418;50.070;8.436;2023-05-22T00:05:57;99599.69;;;19.40;58.98
40730;BME280;26418;50.070;8.436;2023-05-22T00:08:25;99596.66;;;19.45;59.43
40730;BME280;26418;50.070;8.436;2023-05-22T00:10:51;99593.13;;;19.44;59.12
40730;BME280;26418;50.070;8.436;2023-05-22T00:13:16;99602.16;;;19.45;59.33
40730;BME280;26418;50.070;8.436;2023-05-22T00:15:42;99582.09;;;19.41;59.58
40730;BME280;26418;50.070;8.436;2023-05-22T00:18:08;99590.38;;;19.44;59.39
40730;BME280;26418;50.070;8.436;2023-05-22T00:20:33;99588.72;;;19.40;59.13
40730;BME280;26418;50.070;8.436;2023-05-22T00:23:03;99584.44;;;19.39;59.40
40730;BME280;26418;50.070;8.436;2023-05-22T00:25:29;99588.34;;;19.38;59.72
40730;BME280;26418;50.070;8.436;2023-05-22T00:27:54;99589.09;;;19.38;59.64
40730;BME280;26418;50.070;8.436;2023-05-22T00:30:20;99577.38;;;19.38;59.60
40730;BME280;26418;50.070;8.436;2023-05-22T00:32:45;99583.16;;;19.32;59.85
40730;BME280;26418;50.070;8.436;2023-05-22T00:35:11;99588.56;;;19.29;59.91
40730;BME280;26418;50.070;8.436;2023-05-22T00:37:36;99574.44;;;19.27;60.10
40730;BME280;26418;50.070;8.436;2023-05-22T00:40:02;99572.00;;;19.22;60.32
40730;BME280;26418;50.070;8.436;2023-05-22T00:42:29;99581.03;;;19.22;60.46
40730;BME280;26418;50.070;8.436;2023-05-22T00:44:55;99577.06;;;19.20;60.81
40730;BME280;26418;50.070;8.436;2023-05-22T00:47:20;99584.06;;;19.17;60.60
40730;BME280;26418;50.070;8.436;2023-05-22T00:49:47;99582.81;;;19.11;60.93
40730;BME280;26418;50.070;8.436;2023-05-22T00:52:13;99569.41;;;19.06;61.23
40730;BME280;26418;50.070;8.436;2023-05-22T00:54:41;99584.28;;;19.05;61.38
40730;BME280;26418;50.070;8.436;2023-05-22T00:57:07;99590.13;;;19.03;61.28
40730;BME280;26418;50.070;8.436;2023-05-22T00:59:34;99583.00;;;18.98;61.42
40730;BME280;26418;50.070;8.436;2023-05-22T01:02:00;99579.41;;;18.94;61.69
40730;BME280;26418;50.070;8.436;2023-05-22T01:04:27;99581.72;;;18.92;61.93
40730;BME280;26418;50.070;8.436;2023-05-22T01:06:57;99587.09;;;18.89;62.24
40730;BME280;26418;50.070;8.436;2023-05-22T01:09:23;99592.69;;;18.92;62.08
40730;BME280;26418;50.070;8.436;2023-05-22T01:11:50;99577.03;;;18.93;62.17
40730;BME280;26418;50.070;8.436;2023-05-22T01:17:15;99591.00;;;18.88;62.17
40730;BME280;26418;50.070;8.436;2023-05-22T01:20:07;99586.66;;;18.86;62.27
40730;BME280;26418;50.070;8.436;2023-05-22T01:31:04;99579.03;;;18.76;62.95
40730;BME280;26418;50.070;8.436;2023-05-22T01:33:47;99582.09;;;18.71;63.15
40730;BME280;26418;50.070;8.436;2023-05-22T01:36:14;99586.31;;;18.65;63.63
40730;BME280;26418;50.070;8.436;2023-05-22T01:38:44;99589.09;;;18.68;63.42
40730;BME280;26418;50.070;8.436;2023-05-22T01:41:10;99596.50;;;18.68;63.51
40730;BME280;26418;50.070;8.436;2023-05-22T01:43:36;99582.75;;;18.64;63.51
40730;BME280;26418;50.070;8.436;2023-05-22T01:46:04;99588.16;;;18.61;63.86
40730;BME280;26418;50.070;8.436;2023-05-22T01:48:30;99590.50;;;18.59;64.04
40730;BME280;26418;50.070;8.436;2023-05-22T01:50:56;99590.78;;;18.53;64.42
40730;BME280;26418;50.070;8.436;2023-05-22T01:53:29;99593.88;;;18.52;64.26
40730;BME280;26418;50.070;8.436;2023-05-22T01:56:02;99590.28;;;18.48;64.39
40730;BME280;26418;50.070;8.436;2023-05-22T01:58:44;99590.66;;;18.46;64.70
40730;BME280;26418;50.070;8.436;2023-05-22T02:01:13;99585.47;;;18.41;64.76
40730;BME280;26418;50.070;8.436;2023-05-22T02:03:40;99593.19;;;18.35;64.96
40730;BME280;26418;50.070;8.436;2023-05-22T02:06:09;99580.13;;;18.29;65.67
40730;BME280;26418;50.070;8.436;2023-05-22T02:08:40;99584.81;;;18.28;65.77
40730;BME280;26418;50.070;8.436;2023-05-22T02:11:07;99593.31;;;18.23;65.81
40730;BME280;26418;50.070;8.436;2023-05-22T02:13:34;99592.81;;;18.17;66.28
40730;BME280;26418;50.070;8.436;2023-05-22T02:16:00;99599.88;;;18.18;66.17
40730;BME280;26418;50.070;8.436;2023-05-22T02:18:28;99586.41;;;18.10;66.58
40730;BME280;26418;50.070;8.436;2023-05-22T02:20:58;99583.22;;;18.07;66.53
40730;BME280;26418;50.070;8.436;2023-05-22T02:23:24;99587.63;;;18.12;66.73
40730;BME280;26418;50.070;8.436;2023-05-22T02:25:50;99582.53;;;18.11;66.95
40730;BME280;26418;50.070;8.436;2023-05-22T02:28:16;99585.59;;;18.09;67.06
40730;BME280;26418;50.070;8.436;2023-05-22T02:30:42;99584.38;;;18.06;67.00
40730;BME280;26418;50.070;8.436;2023-05-22T02:33:07;99586.78;;;18.08;67.23
40730;BME280;26418;50.070;8.436;2023-05-22T02:35:34;99575.03;;;18.07;67.31
40730;BME280;26418;50.070;8.436;2023-05-22T02:38:00;99580.88;;;18.06;67.33
40730;BME280;26418;50.070;8.436;2023-05-22T02:40:25;99579.97;;;18.02;67.42
40730;BME280;26418;50.070;8.436;2023-05-22T02:42:51;99581.50;;;17.99;67.60
40730;BME280;26418;50.070;8.436;2023-05-22T02:45:16;99567.28;;;17.94;67.80
40730;BME280;26418;50.070;8.436;2023-05-22T02:47:42;99573.66;;;17.98;67.63
40730;BME280;26418;50.070;8.436;2023-05-22T02:50:08;99579.03;;;17.94;67.62
40730;BME280;26418;50.070;8.436;2023-05-22T02:52:33;99574.34;;;17.95;67.69
40730;BME280;26418;50.070;8.436;2023-05-22T02:54:59;99571.97;;;17.93;67.91
40730;BME280;26418;50.070;8.436;2023-05-22T02:57:25;99571.53;;;17.91;68.11
40730;BME280;26418;50.070;8.436;2023-05-22T02:59:51;99573.81;;;17.89;68.30
40730;BME280;26418;50.070;8.436;2023-05-22T03:02:18;99569.09;;;17.86;68.25
40730;BME280;26418;50.070;8.436;2023-05-22T03:04:44;99565.91;;;17.84;68.50
40730;BME280;26418;50.070;8.436;2023-05-22T03:07:09;99565.91;;;17.84;68.76
40730;BME280;26418;50.070;8.436;2023-05-22T03:09:36;99561.34;;;17.72;69.30
40730;BME280;26418;50.070;8.436;2023-05-22T03:12:02;99560.53;;;17.71;69.33
40730;BME280;26418;50.070;8.436;2023-05-22T03:14:29;99575.47;;;17.74;69.42
40730;BME280;26418;50.070;8.436;2023-05-22T03:16:55;99562.56;;;17.74;69.28
40730;BME280;26418;50.070;8.436;2023-05-22T03:19:21;99564.09;;;17.72;69.36
40730;BME280;26418;50.070;8.436;2023-05-22T03:21:47;99569.13;;;17.70;69.49
40730;BME280;26418;50.070;8.436;2023-05-22T03:24:14;99571.16;;;17.73;69.35
40730;BME280;26418;50.070;8.436;2023-05-22T03:26:40;99569.13;;;17.70;69.75
40730;BME280;26418;50.070;8.436;2023-05-22T03:29:08;99575.81;;;17.72;69.77
40730;BME280;26418;50.070;8.436;2023-05-22T03:31:35;99578.06;;;17.67;70.04
40730;BME280;26418;50.070;8.436;2023-05-22T03:34:00;99568.59;;;17.64;70.16
40730;BME280;26418;50.070;8.436;2023-05-22T03:36:27;99574.44;;;17.63;70.46
40730;BME280;26418;50.070;8.436;2023-05-22T03:38:52;99578.31;;;17.62;70.46
40730;BME280;26418;50.070;8.436;2023-05-22T03:41:18;99576.72;;;17.60;70.58
40730;BME280;26418;50.070;8.436;2023-05-22T03:43:44;99569.97;;;17.54;70.71
40730;BME280;26418;50.070;8.436;2023-05-22T03:46:10;99575.88;;;17.56;70.71
40730;BME280;26418;50.070;8.436;2023-05-22T03:48:37;99574.28;;;17.55;70.82
40730;BME280;26418;50.070;8.436;2023-05-22T03:51:03;99579.31;;;17.53;70.65
40730;BME280;26418;50.070;8.436;2023-05-22T03:53:28;99576.41;;;17.46;71.10
40730;BME280;26418;50.070;8.436;2023-05-22T03:55:54;99579.31;;;17.53;71.04
40730;BME280;26418;50.070;8.436;2023-05-22T03:58:22;99579.38;;;17.57;71.05
40730;BME280;26418;50.070;8.436;2023-05-22T04:00:50;99570.31;;;17.53;71.03
40730;BME280;26418;50.070;8.436;2023-05-22T04:03:16;99573.22;;;17.60;70.87
40730;BME280;26418;50.070;8.436;2023-05-22T04:05:46;99568.00;;;17.55;71.04
40730;BME280;26418;50.070;8.436;2023-05-22T04:08:12;99576.19;;;17.55;71.14
40730;BME280;26418;50.070;8.436;2023-05-22T04:10:37;99586.44;;;17.58;71.19
40730;BME280;26418;50.070;8.436;2023-05-22T04:13:04;99584.41;;;17.55;70.99
40730;BME280;26418;50.070;8.436;2023-05-22T04:15:29;99583.91;;;17.49;71.09
40730;BME280;26418;50.070;8.436;2023-05-22T04:17:58;99586.38;;;17.54;71.31
40730;BME280;26418;50.070;8.436;2023-05-22T04:20:24;99584.78;;;17.53;71.00
40730;BME280;26418;50.070;8.436;2023-05-22T04:22:50;99594.19;;;17.56;71.34
40730;BME280;26418;50.070;8.436;2023-05-22T04:25:16;99595.00;;;17.56;71.37
40730;BME280;26418;50.070;8.436;2023-05-22T04:27:41;99596.59;;;17.57;71.27
40730;BME280;26418;50.070;8.436;2023-05-22T04:30:07;99592.34;;;17.60;70.94
40730;BME280;26418;50.070;8.436;2023-05-22T04:32:34;99593.94;;;17.61;71.07
40730;BME280;26418;50.070;8.436;2023-05-22T04:35:01;99592.50;;;17.67;71.25
40730;BME280;26418;50.070;8.436;2023-05-22T04:37:27;99593.28;;;17.68;71.04
40730;BME280;26418;50.070;8.436;2023-05-22T04:39:56;99609.78;;;17.71;70.88
40730;BME280;26418;50.070;8.436;2023-05-22T04:42:27;99603.16;;;17.72;71.04
40730;BME280;26418;50.070;8.436;2023-05-22T04:44:54;99596.53;;;17.73;70.87
40730;BME280;26418;50.070;8.436;2023-05-22T04:47:22;99611.53;;;17.80;71.05
40730;BME280;26418;50.070;8.436;2023-05-22T04:49:48;99609.69;;;17.84;70.74
40730;BME280;26418;50.070;8.436;2023-05-22T04:52:15;99612.03;;;17.85;70.75
40730;BME280;26418;50.070;8.436;2023-05-22T04:54:41;99616.09;;;17.91;70.79
40730;BME280;26418;50.070;8.436;2023-05-22T04:57:08;99618.91;;;17.95;70.68
40730;BME280;26418;50.070;8.436;2023-05-22T04:59:35;99615.06;;;17.96;70.78
40730;BME280;26418;50.070;8.436;2023-05-22T05:02:05;99614.34;;;17.99;70.81
40730;BME280;26418;50.070;8.436;2023-05-22T05:04:31;99621.03;;;18.02;70.67
40730;BME280;26418;50.070;8.436;2023-05-22T05:06:56;99614.91;;;18.09;70.26
40730;BME280;26418;50.070;8.436;2023-05-22T05:09:25;99625.16;;;18.12;70.35
40730;BME280;26418;50.070;8.436;2023-05-22T05:11:51;99623.22;;;18.12;70.18
40730;BME280;26418;50.070;8.436;2023-05-22T05:14:17;99625.75;;;18.21;69.76
40730;BME280;26418;50.070;8.436;2023-05-22T05:16:44;99627.03;;;18.27;69.79
40730;BME280;26418;50.070;8.436;2023-05-22T05:19:09;99618.91;;;18.31;69.51
40730;BME280;26418;50.070;8.436;2023-05-22T05:21:35;99624.06;;;18.36;69.53
40730;BME280;26418;50.070;8.436;2023-05-22T05:24:01;99624.16;;;18.39;69.69
40730;BME280;26418;50.070;8.436;2023-05-22T05:26:26;99625.47;;;18.46;69.32
40730;BME280;26418;50.070;8.436;2023-05-22T05:28:52;99627.91;;;18.51;69.50
40730;BME280;26418;50.070;8.436;2023-05-22T05:31:18;99628.47;;;18.60;69.53
40730;BME280;26418;50.070;8.436;2023-05-22T05:33:45;99631.72;;;18.66;69.68
40730;BME280;26418;50.070;8.436;2023-05-22T05:36:11;99631.84;;;18.73;70.17
40730;BME280;26418;50.070;8.436;2023-05-22T05:38:36;99629.16;;;18.77;70.16
40730;BME280;26418;50.070;8.436;2023-05-22T05:41:02;99636.44;;;18.89;70.46
40730;BME280;26418;50.070;8.436;2023-05-22T05:43:28;99633.06;;;18.95;70.31
40730;BME280;26418;50.070;8.436;2023-05-22T05:45:53;99637.56;;;19.07;70.43
40730;BME280;26418;50.070;8.436;2023-05-22T05:48:19;99637.75;;;19.18;70.50
40730;BME280;26418;50.070;8.436;2023-05-22T05:50:44;99648.13;;;19.28;70.20
40730;BME280;26418;50.070;8.436;2023-05-22T05:53:10;99646.69;;;19.38;70.50
40730;BME280;26418;50.070;8.436;2023-05-22T05:55:35;99643.78;;;19.51;69.98
40730;BME280;26418;50.070;8.436;2023-05-22T05:58:01;99648.63;;;19.61;69.73
40730;BME280;26418;50.070;8.436;2023-05-22T06:00:27;99648.84;;;19.75;69.59
40730;BME280;26418;50.070;8.436;2023-05-22T06:02:52;99646.28;;;19.86;69.51
40730;BME280;26418;50.070;8.436;2023-05-22T06:05:18;99644.50;;;19.98;68.93
40730;BME280;26418;50.070;8.436;2023-05-22T06:07:44;99645.41;;;20.09;68.55
40730;BME280;26418;50.070;8.436;2023-05-22T06:10:11;99645.16;;;20.18;68.31
40730;BME280;26418;50.070;8.436;2023-05-22T06:12:36;99642.59;;;20.32;66.74
40730;BME280;26418;50.070;8.436;2023-05-22T06:15:06;99644.97;;;20.37;63.53
40730;BME280;26418;50.070;8.436;2023-05-22T06:17:33;99639.25;;;20.50;62.60
40730;BME280;26418;50.070;8.436;2023-05-22T06:19:59;99644.09;;;20.60;61.89
40730;BME280;26418;50.070;8.436;2023-05-22T06:22:25;99635.97;;;20.71;61.74
40730;BME280;26418;50.070;8.436;2023-05-22T06:24:51;99642.78;;;20.84;61.14
40730;BME280;26418;50.070;8.436;2023-05-22T06:27:22;99643.31;;;20.97;59.98
40730;BME280;26418;50.070;8.436;2023-05-22T06:29:49;99641.78;;;21.03;60.06
40730;BME280;26418;50.070;8.436;2023-05-22T06:32:14;99635.97;;;21.09;59.70
40730;BME280;26418;50.070;8.436;2023-05-22T06:34:41;99634.81;;;21.10;58.75
40730;BME280;26418;50.070;8.436;2023-05-22T06:37:09;99637.56;;;21.10;58.10
40730;BME280;26418;50.070;8.436;2023-05-22T06:39:34;99642.22;;;21.05;57.78
40730;BME280;26418;50.070;8.436;2023-05-22T06:42:00;99643.31;;;20.97;57.56
40730;BME280;26418;50.070;8.436;2023-05-22T06:44:25;99650.00;;;21.00;57.83
40730;BME280;26418;50.070;8.436;2023-05-22T06:46:51;99649.19;;;20.96;57.30
40730;BME280;26418;50.070;8.436;2023-05-22T06:49:17;99653.56;;;21.00;58.46
40730;BME280;26418;50.070;8.436;2023-05-22T06:51:44;99650.44;;;21.02;57.39
40730;BME280;26418;50.070;8.436;2023-05-22T06:54:09;99651.59;;;21.01;57.68
40730;BME280;26418;50.070;8.436;2023-05-22T06:56:37;99657.13;;;21.04;57.98
40730;BME280;26418;50.070;8.436;2023-05-22T06:59:02;99662.75;;;21.15;57.92
40730;BME280;26418;50.070;8.436;2023-05-22T07:01:28;99658.47;;;21.22;57.84
40730;BME280;26418;50.070;8.436;2023-05-22T07:03:56;99659.28;;;21.26;57.34
40730;BME280;26418;50.070;8.436;2023-05-22T07:06:22;99652.66;;;21.34;57.30
40730;BME280;26418;50.070;8.436;2023-05-22T07:08:49;99648.44;;;21.44;56.78
40730;BME280;26418;50.070;8.436;2023-05-22T07:11:15;99657.91;;;21.50;56.74
40730;BME280;26418;50.070;8.436;2023-05-22T07:13:41;99660.81;;;21.64;56.70
40730;BME280;26418;50.070;8.436;2023-05-22T07:16:06;99656.91;;;21.69;56.07
40730;BME280;26418;50.070;8.436;2023-05-22T07:18:32;99657.38;;;21.78;55.89
40730;BME280;26418;50.070;8.436;2023-05-22T07:20:58;99647.09;;;21.72;56.40
40730;BME280;26418;50.070;8.436;2023-05-22T07:23:23;99658.94;;;21.79;56.77
40730;BME280;26418;50.070;8.436;2023-05-22T07:25:49;99646.41;;;21.89;55.68
40730;BME280;26418;50.070;8.436;2023-05-22T07:28:14;99647.59;;;21.88;55.68
40730;BME280;26418;50.070;8.436;2023-05-22T07:30:40;99651.56;;;21.91;55.51
40730;BME280;26418;50.070;8.436;2023-05-22T07:33:06;99645.22;;;21.87;55.14
40730;BME280;26418;50.070;8.436;2023-05-22T07:35:31;99640.09;;;21.85;55.57
40730;BME280;26418;50.070;8.436;2023-05-22T07:37:57;99653.94;;;21.99;55.29
40730;BME280;26418;50.070;8.436;2023-05-22T07:40:22;99650.06;;;22.08;55.31
40730;BME280;26418;50.070;8.436;2023-05-22T07:42:48;99653.28;;;22.21;55.46
40730;BME280;26418;50.070;8.436;2023-05-22T07:45:13;99643.47;;;22.27;55.00
40730;BME280;26418;50.070;8.436;2023-05-22T07:47:39;99660.88;;;22.45;54.45
40730;BME280;26418;50.070;8.436;2023-05-22T07:50:05;99656.59;;;22.55;54.24
40730;BME280;26418;50.070;8.436;2023-05-22T07:52:31;99657.00;;;22.57;54.12
40730;BME280;26418;50.070;8.436;2023-05-22T07:54:57;99654.66;;;22.67;53.46
40730;BME280;26418;50.070;8.436;2023-05-22T07:57:23;99662.53;;;22.72;53.31
40730;BME280;26418;50.070;8.436;2023-05-22T07:59:49;99664.94;;;22.88;53.53
40730;BME280;26418;50.070;8.436;2023-05-22T08:02:19;99657.09;;;23.04;53.35
40730;BME280;26418;50.070;8.436;2023-05-22T08:04:44;99652.81;;;23.25;52.47
40730;BME280;26418;50.070;8.436;2023-05-22T08:07:10;99664.63;;;23.36;51.58
40730;BME280;26418;50.070;8.436;2023-05-22T08:09:35;99663.47;;;23.41;51.10
40730;BME280;26418;50.070;8.436;2023-05-22T08:12:01;99667.00;;;23.52;51.53
40730;BME280;26418;50.070;8.436;2023-05-22T08:14:27;99669.34;;;23.72;51.46
40730;BME280;26418;50.070;8.436;2023-05-22T08:16:53;99665.41;;;23.88;50.97
40730;BME280;26418;50.070;8.436;2023-05-22T08:19:18;99671.66;;;24.10;50.52
40730;BME280;26418;50.070;8.436;2023-05-22T08:21:44;99669.63;;;24.32;49.85
40730;BME280;26418;50.070;8.436;2023-05-22T08:24:10;99664.38;;;24.56;49.51
40730;BME280;26418;50.070;8.436;2023-05-22T08:26:35;99663.53;;;24.73;48.01
40730;BME280;26418;50.070;8.436;2023-05-22T08:29:01;99664.66;;;24.87;47.72
40730;BME280;26418;50.070;8.436;2023-05-22T08:31:27;99659.75;;;25.13;48.11
40730;BME280;26418;50.070;8.436;2023-05-22T08:33:54;99653.31;;;25.23;47.50
40730;BME280;26418;50.070;8.436;2023-05-22T08:36:27;99654.50;;;25.29;47.21
40730;BME280;26418;50.070;8.436;2023-05-22T08:38:52;99661.53;;;25.37;47.00
40730;BME280;26418;50.070;8.436;2023-05-22T08:41:18;99656.66;;;25.56;46.57
40730;BME280;26418;50.070;8.436;2023-05-22T08:43:44;99651.75;;;25.71;46.21
40730;BME280;26418;50.070;8.436;2023-05-22T08:46:09;99656.38;;;25.85;45.11
40730;BME280;26418;50.070;8.436;2023-05-22T08:48:36;99658.56;;;26.04;45.64
40730;BME280;26418;50.070;8.436;2023-05-22T08:51:03;99656.69;;;26.29;44.78
40730;BME280;26418;50.070;8.436;2023-05-22T08:53:34;99657.75;;;26.42;43.34
40730;BME280;26418;50.070;8.436;2023-05-22T08:56:01;99653.66;;;26.50;43.71
40730;BME280;26418;50.070;8.436;2023-05-22T08:58:28;99655.19;;;26.55;43.30
40730;BME280;26418;50.070;8.436;2023-05-22T09:00:54;99650.28;;;26.66;42.77
40730;BME280;26418;50.070;8.436;2023-05-22T09:03:20;99637.88;;;26.75;42.91
40730;BME280;26418;50.070;8.436;2023-05-22T09:05:47;99636.50;;;26.90;42.71
40730;BME280;26418;50.070;8.436;2023-05-22T09:08:13;99637.19;;;27.22;42.63
40730;BME280;26418;50.070;8.436;2023-05-22T09:10:40;99640.91;;;27.63;41.74
40730;BME280;26418;50.070;8.436;2023-05-22T09:13:07;99641.38;;;28.01;40.05
40730;BME280;26418;50.070;8.436;2023-05-22T09:15:34;99637.47;;;28.19;39.50
40730;BME280;26418;50.070;8.436;2023-05-22T09:18:04;99641.69;;;28.27;39.84
40730;BME280;26418;50.070;8.436;2023-05-22T09:20:39;99637.66;;;28.48;38.99
40730;BME280;26418;50.070;8.436;2023-05-22T09:23:12;99639.16;;;28.53;38.25
40730;BME280;26418;50.070;8.436;2023-05-22T09:25:46;99630.44;;;28.71;38.02
40730;BME280;26418;50.070;8.436;2023-05-22T09:28:12;99639.41;;;28.79;37.36
40730;BME280;26418;50.070;8.436;2023-05-22T09:30:37;99631.66;;;29.03;37.60
40730;BME280;26418;50.070;8.436;2023-05-22T09:33:03;99632.81;;;29.39;37.39
40730;BME280;26418;50.070;8.436;2023-05-22T09:35:31;99626.78;;;29.57;37.22
40730;BME280;26418;50.070;8.436;2023-05-22T09:37:57;99627.50;;;29.74;36.18
40730;BME280;26418;50.070;8.436;2023-05-22T09:40:23;99621.28;;;29.99;36.31
40730;BME280;26418;50.070;8.436;2023-05-22T09:42:51;99630.28;;;30.33;35.63
40730;BME280;26418;50.070;8.436;2023-05-22T09:45:18;99619.97;;;30.59;35.14
40730;BME280;26418;50.070;8.436;2023-05-22T09:47:49;99630.34;;;30.84;35.20
40730;BME280;26418;50.070;8.436;2023-05-22T09:50:15;99629.56;;;30.97;34.68
40730;BME280;26418;50.070;8.436;2023-05-22T09:52:43;99630.75;;;31.09;34.73
40730;BME280;26418;50.070;8.436;2023-05-22T09:55:09;99630.16;;;31.40;34.10
40730;BME280;26418;50.070;8.436;2023-05-22T09:57:41;99618.56;;;31.63;33.66
40730;BME280;26418;50.070;8.436;2023-05-22T10:00:11;99624.53;;;31.88;33.81
40730;BME280;26418;50.070;8.436;2023-05-22T10:02:41;99623.03;;;31.96;32.44
40730;BME280;26418;50.070;8.436;2023-05-22T10:05:09;99623.53;;;32.26;33.04
40730;BME280;26418;50.070;8.436;2023-05-22T10:07:42;99628.28;;;32.38;32.48
40730;BME280;26418;50.070;8.436;2023-05-22T10:10:11;99629.09;;;32.80;31.98
40730;BME280;26418;50.070;8.436;2023-05-22T10:12:43;99632.75;;;33.08;32.20
40730;BME280;26418;50.070;8.436;2023-05-22T10:15:11;99631.56;;;33.28;31.53
40730;BME280;26418;50.070;8.436;2023-05-22T10:17:38;99627.88;;;33.59;31.36
40730;BME280;26418;50.070;8.436;2023-05-22T10:20:05;99624.91;;;33.90;30.97
40730;BME280;26418;50.070;8.436;2023-05-22T10:22:34;99621.63;;;33.64;29.98
40730;BME280;26418;50.070;8.436;2023-05-22T10:25:01;99612.59;;;33.50;30.25
40730;BME280;26418;50.070;8.436;2023-05-22T10:27:27;99612.13;;;33.52;30.47
40730;BME280;26418;50.070;8.436;2023-05-22T10:30:15;99613.69;;;33.44;30.59
40730;BME280;26418;50.070;8.436;2023-05-22T10:35:50;99608.81;;;32.75;31.76
40730;BME280;26418;50.070;8.436;2023-05-22T10:41:03;99594.97;;;33.22;31.31
40730;BME280;26418;50.070;8.436;2023-05-22T10:43:30;99595.63;;;33.35;30.96
40730;BME280;26418;50.070;8.436;2023-05-22T10:46:02;99585.75;;;34.05;30.72
40730;BME280;26418;50.070;8.436;2023-05-22T10:51:11;99588.88;;;34.07;29.41
40730;BME280;26418;50.070;8.436;2023-05-22T10:53:37;99584.44;;;34.25;29.43
40730;BME280;26418;50.070;8.436;2023-05-22T10:56:14;99577.19;;;34.52;29.45
40730;BME280;26418;50.070;8.436;2023-05-22T10:58:42;99577.81;;;34.89;29.77
40730;BME280;26418;50.070;8.436;2023-05-22T11:01:13;99580.13;;;35.15;28.26
40730;BME280;26418;50.070;8.436;2023-05-22T11:08:57;99575.22;;;35.49;28.49
40730;BME280;26418;50.070;8.436;2023-05-22T11:11:26;99578.13;;;35.70;28.15
40730;BME280;26418;50.070;8.436;2023-05-22T11:14:01;99574.56;;;35.84;28.00
40730;BME280;26418;50.070;8.436;2023-05-22T11:16:31;99574.75;;;35.66;28.70
40730;BME280;26418;50.070;8.436;2023-05-22T11:19:16;99571.75;;;35.84;27.78
40730;BME280;26418;50.070;8.436;2023-05-22T11:21:42;99569.69;;;35.55;28.15
40730;BME280;26418;50.070;8.436;2023-05-22T11:24:09;99573.78;;;35.30;28.33
40730;BME280;26418;50.070;8.436;2023-05-22T11:26:35;99564.28;;;35.27;28.68
40730;BME280;26418;50.070;8.436;2023-05-22T11:29:00;99569.50;;;35.34;28.60
40730;BME280;26418;50.070;8.436;2023-05-22T11:31:26;99570.75;;;35.72;28.63
40730;BME280;26418;50.070;8.436;2023-05-22T11:33:53;99566.59;;;35.83;28.37
40730;BME280;26418;50.070;8.436;2023-05-22T11:36:19;99569.94;;;35.96;27.96
40730;BME280;26418;50.070;8.436;2023-05-22T11:38:45;99562.41;;;35.48;27.97
40730;BME280;26418;50.070;8.436;2023-05-22T11:41:11;99563.00;;;35.28;28.60
40730;BME280;26418;50.070;8.436;2023-05-22T11:43:37;99557.72;;;35.06;28.32
40730;BME280;26418;50.070;8.436;2023-05-22T11:46:10;99556.44;;;34.83;29.15
40730;BME280;26418;50.070;8.436;2023-05-22T11:48:40;99554.47;;;34.40;29.42
40730;BME280;26418;50.070;8.436;2023-05-22T11:51:07;99557.13;;;33.92;30.35
40730;BME280;26418;50.070;8.436;2023-05-22T11:53:34;99550.81;;;34.06;30.97
40730;BME280;26418;50.070;8.436;2023-05-22T11:56:04;99552.31;;;33.64;31.13
40730;BME280;26418;50.070;8.436;2023-05-22T11:58:30;99543.91;;;33.55;31.27
40730;BME280;26418;50.070;8.436;2023-05-22T12:01:00;99541.56;;;33.26;32.00
40730;BME280;26418;50.070;8.436;2023-05-22T12:03:27;99538.44;;;33.14;32.74
40730;BME280;26418;50.070;8.436;2023-05-22T12:05:53;99550.41;;;32.96;32.52
40730;BME280;26418;50.070;8.436;2023-05-22T12:08:19;99546.81;;;33.05;32.84
40730;BME280;26418;50.070;8.436;2023-05-22T12:10:52;99541.88;;;33.28;32.45
40730;BME280;26418;50.070;8.436;2023-05-22T12:13:28;99533.63;;;33.33;32.79
40730;BME280;26418;50.070;8.436;2023-05-22T12:15:56;99538.41;;;33.79;31.99
40730;BME280;26418;50.070;8.436;2023-05-22T12:18:24;99528.47;;;33.60;31.67
40730;BME280;26418;50.070;8.436;2023-05-22T12:20:54;99541.88;;;33.46;32.18
40730;BME280;26418;50.070;8.436;2023-05-22T12:23:27;99540.94;;;33.49;32.18
40730;BME280;26418;50.070;8.436;2023-05-22T12:26:00;99529.91;;;33.36;32.39
40730;BME280;26418;50.070;8.436;2023-05-22T12:28:26;99535.81;;;33.48;32.32
40730;BME280;26418;50.070;8.436;2023-05-22T12:30:53;99535.00;;;33.66;32.34
40730;BME280;26418;50.070;8.436;2023-05-22T12:33:27;99529.72;;;33.87;31.96
40730;BME280;26418;50.070;8.436;2023-05-22T12:35:54;99530.00;;;33.89;32.08
40730;BME280;26418;50.070;8.436;2023-05-22T12:38:26;99526.41;;;33.88;32.27
40730;BME280;26418;50.070;8.436;2023-05-22T12:40:54;99518.16;;;33.75;31.91
40730;BME280;26418;50.070;8.436;2023-05-22T12:43:24;99520.19;;;33.75;31.81
40730;BME280;26418;50.070;8.436;2023-05-22T12:45:50;99516.94;;;33.58;31.62
40730;BME280;26418;50.070;8.436;2023-05-22T12:48:16;99515.84;;;33.64;32.18
40730;BME280;26418;50.070;8.436;2023-05-22T12:50:43;99522.38;;;33.70;32.04
40730;BME280;26418;50.070;8.436;2023-05-22T12:53:09;99513.38;;;33.57;32.30
40730;BME280;26418;50.070;8.436;2023-05-22T12:55:35;99514.28;;;33.63;31.95
40730;BME280;26418;50.070;8.436;2023-05-22T12:58:01;99514.63;;;33.65;32.16
40730;BME280;26418;50.070;8.436;2023-05-22T13:00:27;99514.44;;;33.69;32.03
40730;BME280;26418;50.070;8.436;2023-05-22T13:02:52;99517.25;;;33.69;32.11
40730;BME280;26418;50.070;8.436;2023-05-22T13:05:18;99511.63;;;33.69;31.46
40730;BME280;26418;50.070;8.436;2023-05-22T13:07:44;99514.28;;;33.73;31.89
40730;BME280;26418;50.070;8.436;2023-05-22T13:10:09;99497.28;;;33.76;31.54
40730;BME280;26418;50.070;8.436;2023-05-22T13:12:35;99507.09;;;33.90;31.72
40730;BME280;26418;50.070;8.436;2023-05-22T13:15:01;99507.53;;;33.89;32.04
40730;BME280;26418;50.070;8.436;2023-05-22T13:17:27;99511.94;;;33.71;31.57
40730;BME280;26418;50.070;8.436;2023-05-22T13:19:56;99510.88;;;33.50;31.86
40730;BME280;26418;50.070;8.436;2023-05-22T13:22:23;99509.34;;;33.39;32.27
40730;BME280;26418;50.070;8.436;2023-05-22T13:24:49;99505.59;;;33.43;32.41